Airfield :
LOGIN :

Register | Disclaimer

   EN    FR    IT 

 










Legend :    VFR   Marginal VFR   IFR   Intensive IFR   Very Intensive IFR
Visi :
Ceiling :
>= 8 km
>= 3000ft
5 to 8 km
1000 to 3000 ft
1500m to 5 km
500 to 1000 ft
800 to 1500m
200 to 500 ft
< 800m
< 200 ft
Symbols :   Thunderstorms  Fog  Heavy snow  Heavy precipitations  Wind > 20 kt
SIGMETs :     Misc.  Thunderstorms  Icing  Turbulence  Mountain Waves  Volcanic Ashes






- Airport Elevation : 309 ft
- IATA code : FNI


LFTW - Nîmes Garons

CURRENT METAR :
  • 261930Z AUTO 29002KT 3400 1000 R18/P2000 BR NSC 08/07 Q1021

EXPIRED METARs :
  • 261900Z AUTO 32002KT CAVOK 08/08 Q1021 TEMPO 2000 BR OVC005
  • 261830Z AUTO 00000KT CAVOK 09/08 Q1021 TEMPO 2000 BR OVC005
  • 261800Z AUTO 15001KT CAVOK 10/08 Q1020 TEMPO 2000 BR OVC005
  • 261730Z AUTO 00000KT CAVOK 10/09 Q1020 TEMPO 2000 BR OVC005
  • 261700Z AUTO 00000KT CAVOK 10/08 Q1020 TEMPO 2000 BR OVC005

TAF TAF LFTW
Valid from the 26 at 15:00 until the 27 at 15:00 UTC


261400Z 2615/2715 VRB03KT 9999 FEW020 OVC060
TEMPO 2618/2707 2000 BR OVC005
PROB40
TEMPO 2621/2707 0500 FG VV///
TEMPO 2710/2715 BKN014



MET'MAP, your aeronautical weather chart ! - Copyright ORBIFLY December 2007 - Disclaimer

ORBIFLY MET'MAP TEAM :

Programming & Development : Alexandra Zaïnal
Concept & original design : Baudouin d'Aumeries
Assistance for programming : Marc-Olivier Méhu
Technical & hardware support : Manuel Goepfert

Contact : metmap@orbifly.com




SOURCES & CREDITS :

   NOAA